Time;durP1;ratioP1;P1;durP2;ratioP2;P2;SDS_P1;SDS_P2;PMS_P1;PMS_P2;Temp;Humidity;BMP_temperature;BMP_pressure;BME280_temperature;BME280_humidity;BME280_pressure;Samples;Min_cycle;Max_cycle;Signal;HPM_P1;HPM_P2
2022/03/03 00:01:57;;;;;;;1.13;0.90;;;1.90;99.90;;;;;;4916817;29;20199;-70
2022/03/03 00:04:23;;;;;;;1.63;1.53;;;1.80;99.90;;;;;;4908918;29;20181;-70
2022/03/03 00:06:48;;;;;;;0.80;0.70;;;1.80;99.90;;;;;;4915988;29;20179;-70
2022/03/03 00:09:14;;;;;;;0.70;0.50;;;1.80;99.90;;;;;;4917240;29;20211;-71
2022/03/03 00:11:39;;;;;;;0.90;0.90;;;1.70;99.90;;;;;;4906790;29;20219;-70
2022/03/03 00:14:05;;;;;;;1.63;1.57;;;1.70;99.90;;;;;;4898430;29;20595;-71
2022/03/03 00:16:31;;;;;;;0.70;0.50;;;1.70;99.90;;;;;;4898668;29;20195;-71
2022/03/03 00:18:56;;;;;;;0.70;0.50;;;1.70;99.90;;;;;;4902277;29;22163;-70
2022/03/03 00:21:22;;;;;;;0.70;0.50;;;1.70;99.90;;;;;;4916826;29;20191;-70
2022/03/03 00:23:48;;;;;;;0.70;0.50;;;1.70;99.90;;;;;;4905262;29;20567;-70
2022/03/03 00:26:13;;;;;;;0.70;0.43;;;1.70;99.90;;;;;;4912829;29;20556;-70
2022/03/03 00:28:39;;;;;;;1.00;0.83;;;1.70;99.90;;;;;;4916667;29;20590;-70
2022/03/03 00:31:05;;;;;;;0.70;0.50;;;1.70;99.90;;;;;;4916683;29;20258;-70
2022/03/03 00:33:30;;;;;;;2.77;1.27;;;1.60;99.90;;;;;;4907498;29;20740;-70
2022/03/03 00:35:56;;;;;;;0.70;0.50;;;1.60;99.90;;;;;;4898248;29;20519;-70
2022/03/03 00:38:22;;;;;;;0.70;0.60;;;1.50;99.90;;;;;;4898045;29;20181;-70
2022/03/03 00:40:47;;;;;;;0.70;0.50;;;1.50;99.90;;;;;;4901330;29;20238;-70
2022/03/03 00:43:13;;;;;;;1.20;1.10;;;1.40;99.90;;;;;;4916326;29;20674;-70
2022/03/03 00:45:38;;;;;;;3.07;1.07;;;1.40;99.90;;;;;;4906058;29;20267;-70
2022/03/03 00:48:05;;;;;;;0.70;0.40;;;1.40;99.90;;;;;;4896767;29;20186;-70
2022/03/03 00:50:30;;;;;;;0.83;0.83;;;1.30;99.90;;;;;;4900610;29;20190;-70
2022/03/03 00:52:56;;;;;;;0.90;0.73;;;1.30;99.90;;;;;;4905491;29;20448;-70
2022/03/03 00:55:22;;;;;;;0.70;0.40;;;1.20;99.90;;;;;;4905255;29;20435;-70
2022/03/03 00:57:48;;;;;;;0.70;0.50;;;1.20;99.90;;;;;;4901285;29;20550;-70
2022/03/03 01:00:14;;;;;;;0.83;0.70;;;1.20;99.90;;;;;;4898084;29;20214;-70
2022/03/03 01:02:39;;;;;;;1.17;0.67;;;1.10;99.90;;;;;;4904600;29;20241;-70
2022/03/03 01:05:06;;;;;;;0.80;0.70;;;1.10;99.90;;;;;;4901631;29;20457;-70
2022/03/03 01:07:32;;;;;;;0.70;0.40;;;1.10;99.90;;;;;;4915719;29;20706;-70
2022/03/03 01:09:57;;;;;;;0.70;0.50;;;1.00;99.90;;;;;;4915728;29;20547;-71
2022/03/03 01:12:23;;;;;;;0.93;0.80;;;1.00;99.90;;;;;;4911272;29;20536;-71
2022/03/03 01:14:48;;;;;;;0.83;0.80;;;1.00;99.90;;;;;;4913736;29;20634;-70
2022/03/03 01:17:14;;;;;;;0.80;0.60;;;1.00;99.90;;;;;;4916203;29;20558;-70
2022/03/03 01:19:41;;;;;;;0.80;0.70;;;0.90;99.90;;;;;;4896902;29;20647;-70
2022/03/03 01:22:07;;;;;;;1.67;1.57;;;0.90;99.90;;;;;;4908079;29;20446;-71
2022/03/03 01:24:33;;;;;;;0.70;0.43;;;0.90;99.90;;;;;;4911596;29;20492;-70
2022/03/03 01:26:58;;;;;;;0.70;0.50;;;1.00;99.90;;;;;;4897294;29;20255;-70
2022/03/03 01:29:24;;;;;;;0.70;0.40;;;0.90;99.90;;;;;;4912875;29;20438;-71
2022/03/03 01:31:50;;;;;;;0.80;0.60;;;0.90;99.90;;;;;;4907546;29;20581;-70
2022/03/03 01:34:16;;;;;;;0.70;0.50;;;0.90;99.90;;;;;;4895794;29;20185;-70
2022/03/03 01:36:43;;;;;;;0.97;0.80;;;0.90;99.90;;;;;;4897155;29;20206;-71
2022/03/03 01:39:09;;;;;;;0.70;0.40;;;0.90;99.90;;;;;;4897077;29;20291;-70
2022/03/03 01:41:35;;;;;;;0.70;0.50;;;0.80;99.90;;;;;;4902601;29;20435;-70
2022/03/03 01:44:01;;;;;;;3.20;2.90;;;0.90;99.90;;;;;;4909311;29;20426;-71
2022/03/03 01:46:26;;;;;;;0.70;0.50;;;0.90;99.90;;;;;;4915466;29;20830;-71
2022/03/03 01:48:52;;;;;;;0.70;0.50;;;0.80;99.90;;;;;;4915695;29;20435;-71
2022/03/03 01:51:17;;;;;;;0.70;0.50;;;0.80;99.90;;;;;;4926965;28;20178;-70
2022/03/03 01:53:43;;;;;;;0.70;0.40;;;0.80;99.90;;;;;;4907493;29;20204;-71
2022/03/03 01:56:09;;;;;;;0.70;0.60;;;0.70;99.90;;;;;;4901512;29;20204;-70
2022/03/03 01:58:36;;;;;;;0.70;0.50;;;0.70;99.90;;;;;;4906005;29;20183;-70
2022/03/03 02:01:02;;;;;;;0.70;0.50;;;0.70;99.90;;;;;;4926848;28;20212;-71
2022/03/03 02:03:28;;;;;;;1.83;1.60;;;0.70;99.90;;;;;;4912866;29;20790;-70
2022/03/03 02:05:53;;;;;;;0.70;0.50;;;0.60;99.90;;;;;;4915418;29;20188;-71
2022/03/03 02:08:19;;;;;;;0.70;0.50;;;0.60;99.90;;;;;;4914115;29;20195;-70
2022/03/03 02:10:44;;;;;;;1.67;1.57;;;0.50;99.90;;;;;;4905906;29;20196;-71
2022/03/03 02:13:10;;;;;;;0.80;0.70;;;0.50;99.90;;;;;;4915024;29;20207;-70
2022/03/03 02:15:35;;;;;;;0.70;0.50;;;0.50;99.90;;;;;;4897801;29;20199;-70
2022/03/03 02:18:01;;;;;;;1.10;1.00;;;0.50;99.90;;;;;;4896728;29;20263;-70
2022/03/03 02:20:29;;;;;;;0.70;0.50;;;0.50;99.90;;;;;;4905844;29;20237;-70
2022/03/03 02:22:56;;;;;;;0.70;0.50;;;0.50;99.90;;;;;;4910518;29;20598;-70
2022/03/03 02:25:23;;;;;;;1.03;0.97;;;0.40;99.90;;;;;;4917275;29;20434;-70
2022/03/03 02:27:49;;;;;;;0.80;0.60;;;0.40;99.90;;;;;;4919174;29;20432;-69
2022/03/03 02:30:17;;;;;;;0.70;0.70;;;0.30;99.90;;;;;;4929504;29;20438;-69
2022/03/03 02:32:45;;;;;;;0.70;0.50;;;0.30;99.90;;;;;;4900772;29;20547;-71
2022/03/03 02:35:11;;;;;;;0.70;0.50;;;0.20;99.90;;;;;;4908824;29;20459;-70
2022/03/03 02:37:39;;;;;;;0.80;0.60;;;0.20;99.90;;;;;;4918725;29;20804;-70
2022/03/03 02:40:08;;;;;;;0.70;0.50;;;0.20;99.90;;;;;;4918714;29;21028;-70
2022/03/03 02:42:33;;;;;;;0.70;0.40;;;0.20;99.90;;;;;;4914485;29;20466;-69
2022/03/03 02:44:59;;;;;;;1.90;1.80;;;0.10;99.90;;;;;;4917112;29;20435;-69
2022/03/03 02:47:24;;;;;;;0.70;0.60;;;0.10;99.90;;;;;;4910706;29;20189;-71
2022/03/03 02:49:50;;;;;;;2.83;1.17;;;0.10;99.90;;;;;;4907098;29;20176;-71
2022/03/03 02:52:15;;;;;;;0.70;0.50;;;0.10;99.90;;;;;;4903487;29;20283;-69
2022/03/03 02:54:41;;;;;;;0.70;0.50;;;0.10;99.90;;;;;;4915084;29;20189;-69
2022/03/03 02:59:53;;;;;;;0.70;0.50;;;0.00;99.90;;;;;;4902642;29;20215;-70
2022/03/03 03:02:18;;;;;;;0.70;0.50;;;0.00;99.90;;;;;;4907361;29;20488;-71
2022/03/03 03:04:44;;;;;;;2.50;2.33;;;0.00;99.90;;;;;;4899479;29;20849;-70
2022/03/03 03:07:09;;;;;;;0.70;0.40;;;-0.10;99.90;;;;;;4914023;29;20179;-70
2022/03/03 03:09:35;;;;;;;1.17;1.07;;;-0.10;99.90;;;;;;4930920;28;20176;-70
2022/03/03 03:12:01;;;;;;;0.70;0.40;;;-0.10;99.90;;;;;;4912477;29;20208;-70
2022/03/03 03:14:27;;;;;;;0.80;0.70;;;-0.10;99.90;;;;;;4917841;28;20683;-71
2022/03/03 03:16:52;;;;;;;0.80;0.80;;;-0.10;99.90;;;;;;4914351;29;20517;-70
2022/03/03 03:19:18;;;;;;;0.70;0.50;;;-0.10;99.90;;;;;;4901984;29;20614;-70
2022/03/03 03:21:43;;;;;;;0.80;0.73;;;-0.10;99.90;;;;;;4909769;29;20179;-70
2022/03/03 03:24:09;;;;;;;1.17;1.07;;;-0.20;99.90;;;;;;4917952;29;20658;-70
2022/03/03 03:26:34;;;;;;;0.70;0.50;;;-0.20;99.90;;;;;;4917878;29;20263;-70
2022/03/03 03:29:00;;;;;;;0.70;0.50;;;-0.20;99.90;;;;;;4917928;29;20171;-70
2022/03/03 03:31:27;;;;;;;0.70;0.63;;;-0.20;99.90;;;;;;4913257;29;20227;-70
2022/03/03 03:33:53;;;;;;;0.70;0.50;;;-0.30;99.90;;;;;;4917117;29;20192;-70
2022/03/03 03:36:19;;;;;;;2.03;1.33;;;-0.30;99.90;;;;;;4900812;29;20468;-69
2022/03/03 03:38:44;;;;;;;0.70;0.50;;;-0.30;99.90;;;;;;4899196;29;20424;-70
2022/03/03 03:41:10;;;;;;;1.83;0.87;;;-0.30;99.90;;;;;;4908312;29;20188;-71
2022/03/03 03:43:36;;;;;;;0.80;0.60;;;-0.30;99.90;;;;;;4898893;29;20206;-70
2022/03/03 03:46:02;;;;;;;0.70;0.47;;;-0.30;99.90;;;;;;4899058;29;20861;-70
2022/03/03 03:48:28;;;;;;;0.70;0.40;;;-0.40;99.90;;;;;;4899572;29;20185;-70
2022/03/03 03:50:53;;;;;;;0.70;0.40;;;-0.40;99.90;;;;;;4928256;28;20172;-71
2022/03/03 03:53:19;;;;;;;0.70;0.40;;;-0.40;99.90;;;;;;4916928;29;20203;-71
2022/03/03 03:55:44;;;;;;;0.70;0.40;;;-0.40;99.90;;;;;;4917519;29;20222;-71
2022/03/03 03:58:10;;;;;;;0.70;0.53;;;-0.40;99.90;;;;;;4917637;29;20260;-70
2022/03/03 04:00:35;;;;;;;2.03;0.93;;;-0.40;99.90;;;;;;4926384;28;20202;-70
2022/03/03 04:03:01;;;;;;;0.70;0.40;;;-0.40;99.90;;;;;;4917099;29;20200;-70
2022/03/03 04:05:26;;;;;;;0.70;0.50;;;-0.40;99.90;;;;;;4908939;29;20598;-70
2022/03/03 04:07:52;;;;;;;0.70;0.40;;;-0.40;99.90;;;;;;4898737;29;20215;-70
2022/03/03 04:10:17;;;;;;;0.80;0.70;;;-0.40;99.90;;;;;;4913242;29;20186;-70
2022/03/03 04:12:43;;;;;;;0.80;0.60;;;-0.40;99.90;;;;;;4898787;29;20667;-70
2022/03/03 04:15:09;;;;;;;0.70;0.60;;;-0.30;99.90;;;;;;4898396;29;20251;-70
2022/03/03 04:17:35;;;;;;;0.70;0.40;;;-0.30;99.90;;;;;;4898573;29;20455;-70
2022/03/03 04:20:02;;;;;;;0.70;0.47;;;-0.30;99.90;;;;;;4910949;29;20511;-70
2022/03/03 04:22:27;;;;;;;6.53;1.33;;;-0.30;99.90;;;;;;4900905;29;20444;-70
2022/03/03 04:24:53;;;;;;;2.17;1.70;;;-0.30;99.90;;;;;;4902456;29;20429;-70
2022/03/03 04:27:18;;;;;;;0.80;0.67;;;-0.20;99.90;;;;;;4931577;28;20654;-70
2022/03/03 04:29:44;;;;;;;0.70;0.50;;;-0.20;99.90;;;;;;4910658;29;20179;-70
2022/03/03 04:32:09;;;;;;;0.80;0.70;;;-0.20;99.90;;;;;;4917197;29;20208;-71
2022/03/03 04:34:35;;;;;;;0.70;0.50;;;-0.20;99.90;;;;;;4912558;29;20211;-70
2022/03/03 04:37:01;;;;;;;0.70;0.50;;;-0.10;99.90;;;;;;4898238;29;20176;-70
2022/03/03 04:39:26;;;;;;;0.70;0.50;;;-0.10;99.90;;;;;;4906111;29;20459;-70
2022/03/03 04:41:52;;;;;;;0.87;0.83;;;-0.10;99.90;;;;;;4916551;29;20565;-70
2022/03/03 04:44:18;;;;;;;0.80;0.70;;;-0.10;99.90;;;;;;4916216;29;20542;-70
2022/03/03 04:46:44;;;;;;;0.80;0.73;;;-0.10;99.90;;;;;;4908975;29;20660;-70
2022/03/03 04:49:09;;;;;;;1.13;0.70;;;-0.10;99.90;;;;;;4907054;29;20435;-70
2022/03/03 04:51:36;;;;;;;0.70;0.43;;;-0.10;99.90;;;;;;4916332;29;20180;-70
2022/03/03 04:54:04;;;;;;;0.80;0.70;;;-0.10;99.90;;;;;;4911328;29;20173;-70
2022/03/03 04:56:29;;;;;;;0.70;0.50;;;-0.10;99.90;;;;;;4897902;29;20437;-70
2022/03/03 04:58:55;;;;;;;0.70;0.50;;;-0.20;99.90;;;;;;4897986;29;20524;-70
2022/03/03 05:01:20;;;;;;;0.70;0.50;;;-0.20;99.90;;;;;;4913771;29;20183;-70
2022/03/03 05:03:46;;;;;;;4.83;1.63;;;-0.20;99.90;;;;;;4905031;29;20200;-70
2022/03/03 05:06:11;;;;;;;0.70;0.50;;;-0.20;99.90;;;;;;4897705;29;20697;-69
2022/03/03 05:08:37;;;;;;;0.70;0.50;;;-0.30;99.90;;;;;;4911890;29;20684;-69
2022/03/03 05:11:03;;;;;;;0.70;0.40;;;-0.30;99.90;;;;;;4897787;29;20219;-69
2022/03/03 05:13:29;;;;;;;1.03;1.03;;;-0.30;99.90;;;;;;4897216;29;20200;-70
2022/03/03 05:15:54;;;;;;;0.80;0.80;;;-0.30;99.90;;;;;;4897538;29;20440;-69
2022/03/03 05:18:20;;;;;;;0.70;0.40;;;-0.30;99.90;;;;;;4897511;29;20435;-70
2022/03/03 05:20:46;;;;;;;1.00;0.90;;;-0.40;99.90;;;;;;4915496;29;20203;-70
2022/03/03 05:23:11;;;;;;;7.60;1.17;;;-0.40;99.90;;;;;;4915451;29;20199;-70
2022/03/03 05:25:37;;;;;;;0.70;0.47;;;-0.40;99.90;;;;;;4898443;29;20218;-69
2022/03/03 05:28:03;;;;;;;0.70;0.50;;;-0.40;99.90;;;;;;4897384;29;20563;-69
2022/03/03 05:30:29;;;;;;;0.70;0.50;;;-0.40;99.90;;;;;;4912953;29;20614;-70
2022/03/03 05:32:55;;;;;;;1.20;1.10;;;-0.40;99.90;;;;;;4915486;29;20447;-69
2022/03/03 05:35:21;;;;;;;0.70;0.50;;;-0.40;99.90;;;;;;4915724;29;20190;-70
2022/03/03 05:37:47;;;;;;;0.70;0.70;;;-0.30;99.90;;;;;;4905045;29;20247;-70
2022/03/03 05:40:13;;;;;;;0.70;0.50;;;-0.30;99.90;;;;;;4911046;29;20455;-70
2022/03/03 05:42:39;;;;;;;0.70;0.40;;;-0.30;99.90;;;;;;4914946;29;20451;-70
2022/03/03 05:45:06;;;;;;;1.83;0.97;;;-0.30;99.90;;;;;;4915600;29;20459;-70
2022/03/03 05:47:33;;;;;;;0.90;0.80;;;-0.30;99.90;;;;;;4915271;29;20190;-69
2022/03/03 05:50:00;;;;;;;0.80;0.60;;;-0.30;99.90;;;;;;4915332;29;20439;-70
2022/03/03 05:52:25;;;;;;;1.77;1.33;;;-0.30;99.90;;;;;;4900020;29;20458;-70
2022/03/03 05:54:51;;;;;;;0.70;0.50;;;-0.30;99.90;;;;;;4913827;29;20435;-70
2022/03/03 05:57:23;;;;;;;4.57;1.07;;;-0.30;99.90;;;;;;4914451;29;20203;-69
2022/03/03 05:59:53;;;;;;;0.80;0.60;;;-0.30;99.90;;;;;;4914967;29;20598;-70
2022/03/03 06:02:19;;;;;;;0.80;0.60;;;-0.40;99.90;;;;;;4926858;28;20543;-70
2022/03/03 06:04:48;;;;;;;1.10;1.10;;;-0.40;99.90;;;;;;4896996;29;20458;-69
2022/03/03 06:07:22;;;;;;;1.10;0.70;;;-0.40;99.90;;;;;;4910369;29;20427;-69
2022/03/03 06:09:51;;;;;;;0.70;0.50;;;-0.40;99.90;;;;;;4915633;29;20442;-69
2022/03/03 06:12:31;;;;;;;0.70;0.50;;;-0.40;99.90;;;;;;4913844;29;20459;-70
2022/03/03 06:15:05;;;;;;;0.70;0.50;;;-0.40;99.90;;;;;;4915236;29;20901;-70
2022/03/03 06:17:31;;;;;;;0.70;0.40;;;-0.50;99.90;;;;;;4915485;29;20830;-70
2022/03/03 06:20:00;;;;;;;0.70;0.50;;;-0.50;99.90;;;;;;4915131;29;21032;-69
2022/03/03 06:22:26;;;;;;;0.70;0.50;;;-0.50;99.90;;;;;;4899368;29;20828;-69
2022/03/03 06:24:52;;;;;;;0.70;0.40;;;-0.50;99.90;;;;;;4896411;29;20811;-69
2022/03/03 06:27:17;;;;;;;2.10;2.00;;;-0.50;99.90;;;;;;4903667;29;20432;-69
2022/03/03 06:29:43;;;;;;;0.70;0.40;;;-0.50;99.90;;;;;;4914985;29;20175;-69
2022/03/03 06:32:09;;;;;;;0.70;0.43;;;-0.50;99.90;;;;;;4915099;29;20627;-69
2022/03/03 06:34:35;;;;;;;0.70;0.50;;;-0.50;99.90;;;;;;4914714;29;20183;-71
2022/03/03 06:37:00;;;;;;;0.70;0.40;;;-0.50;99.90;;;;;;4929797;28;20479;-70
2022/03/03 06:39:26;;;;;;;0.70;0.40;;;-0.50;99.90;;;;;;4915120;29;20249;-70
2022/03/03 06:41:52;;;;;;;1.00;0.60;;;-0.50;99.90;;;;;;4915137;29;20607;-70
2022/03/03 06:44:18;;;;;;;0.90;0.70;;;-0.50;99.90;;;;;;4898321;29;20599;-70
2022/03/03 06:46:44;;;;;;;0.70;0.40;;;-0.50;99.90;;;;;;4899202;29;20236;-70
2022/03/03 06:49:11;;;;;;;0.80;0.80;;;-0.40;99.90;;;;;;4913907;29;20432;-70
2022/03/03 06:51:42;;;;;;;0.70;0.40;;;-0.40;99.90;;;;;;4915115;29;20172;-70
2022/03/03 06:54:17;;;;;;;0.70;0.50;;;-0.40;99.90;;;;;;4914526;29;20427;-70
2022/03/03 06:56:47;;;;;;;0.70;0.40;;;-0.40;99.90;;;;;;4914569;29;20455;-70
2022/03/03 06:59:16;;;;;;;0.70;0.43;;;-0.30;99.90;;;;;;4914954;29;20860;-70
2022/03/03 07:01:42;;;;;;;1.10;1.00;;;-0.30;99.90;;;;;;4914857;29;20443;-71
2022/03/03 07:04:11;;;;;;;1.03;1.00;;;-0.30;99.90;;;;;;4914210;29;20436;-70
2022/03/03 07:06:37;;;;;;;0.70;0.50;;;-0.20;99.90;;;;;;4898541;29;20443;-71
2022/03/03 07:09:03;;;;;;;0.70;0.50;;;-0.20;99.90;;;;;;4896315;29;20436;-70
2022/03/03 07:11:32;;;;;;;0.70;0.40;;;-0.10;99.90;;;;;;4897051;29;20259;-70
2022/03/03 07:14:00;;;;;;;0.70;0.40;;;-0.10;99.90;;;;;;4913889;29;20462;-70
2022/03/03 07:16:39;;;;;;;1.63;1.50;;;0.00;99.90;;;;;;4901079;29;20805;-71
2022/03/03 07:19:07;;;;;;;0.70;0.50;;;0.00;99.90;;;;;;4918120;29;20474;-69
2022/03/03 07:21:54;;;;;;;0.70;0.50;;;0.10;99.90;;;;;;4915314;29;20922;-70
2022/03/03 07:24:45;;;;;;;0.80;0.67;;;0.20;99.90;;;;;;4899392;29;20421;-70
2022/03/03 07:27:19;;;;;;;0.70;0.50;;;0.30;99.90;;;;;;4913698;29;20989;-70
2022/03/03 07:29:47;;;;;;;0.70;0.50;;;0.50;99.90;;;;;;4902537;29;20434;-70
2022/03/03 07:32:18;;;;;;;0.70;0.40;;;0.60;99.90;;;;;;4911386;29;20475;-71
2022/03/03 07:34:50;;;;;;;0.70;0.40;;;0.80;99.90;;;;;;4909847;29;20432;-70
2022/03/03 07:37:20;;;;;;;0.70;0.40;;;0.90;99.90;;;;;;4903477;29;20439;-70
2022/03/03 07:39:46;;;;;;;5.07;2.20;;;1.10;99.90;;;;;;4908584;29;20459;-70
2022/03/03 07:42:17;;;;;;;0.70;0.40;;;1.30;99.90;;;;;;4918397;28;20467;-69
2022/03/03 07:44:44;;;;;;;1.17;0.70;;;1.50;99.90;;;;;;4899009;29;20251;-71
2022/03/03 07:47:10;;;;;;;1.40;1.03;;;1.70;99.90;;;;;;4903947;29;20467;-71
2022/03/03 07:49:37;;;;;;;0.70;0.50;;;1.90;99.90;;;;;;4917885;29;20481;-71
2022/03/03 07:52:04;;;;;;;0.70;0.50;;;2.20;99.90;;;;;;4905035;29;20854;-71
2022/03/03 07:54:30;;;;;;;0.90;0.70;;;2.50;99.90;;;;;;4915069;29;20796;-71
2022/03/03 07:56:58;;;;;;;0.80;0.73;;;3.10;99.90;;;;;;4917894;29;20435;-71
2022/03/03 07:59:32;;;;;;;3.63;3.30;;;3.80;99.90;;;;;;4914250;29;20465;-71
2022/03/03 08:02:01;;;;;;;2.17;0.90;;;4.50;99.90;;;;;;4905733;29;20448;-71
2022/03/03 08:04:30;;;;;;;0.70;0.50;;;5.30;99.90;;;;;;4929735;29;21061;-71
2022/03/03 08:07:06;;;;;;;0.93;0.93;;;6.10;99.90;;;;;;4917498;29;20435;-71
2022/03/03 08:09:33;;;;;;;0.70;0.60;;;7.00;99.90;;;;;;4916133;29;20454;-71
2022/03/03 08:12:02;;;;;;;0.93;0.90;;;7.90;99.90;;;;;;4910031;29;20450;-71
2022/03/03 08:14:30;;;;;;;0.77;0.67;;;8.80;99.90;;;;;;4915635;29;20510;-72
2022/03/03 08:16:55;;;;;;;1.47;1.20;;;9.80;99.90;;;;;;4912790;29;20440;-71
2022/03/03 08:19:22;;;;;;;2.40;1.73;;;10.80;93.10;;;;;;4898584;29;20870;-71
2022/03/03 08:21:49;;;;;;;2.63;2.43;;;11.60;85.00;;;;;;4898459;29;20185;-72
2022/03/03 08:24:15;;;;;;;2.30;1.73;;;12.40;76.90;;;;;;4912664;29;20438;-72
2022/03/03 08:26:42;;;;;;;2.97;2.73;;;13.20;72.20;;;;;;4915832;29;20427;-71
2022/03/03 08:29:09;;;;;;;19.73;1.93;;;13.90;67.10;;;;;;4903355;29;20463;-72
2022/03/03 08:31:43;;;;;;;3.50;3.17;;;14.60;59.90;;;;;;4898241;29;20433;-72
2022/03/03 08:34:26;;;;;;;5.23;1.93;;;15.30;58.30;;;;;;4898083;29;20435;-72
2022/03/03 08:36:57;;;;;;;2.60;1.93;;;16.10;54.80;;;;;;4916276;29;20759;-72
2022/03/03 08:39:28;;;;;;;2.77;2.57;;;16.90;53.90;;;;;;4908579;29;20829;-72
2022/03/03 08:41:59;;;;;;;4.27;2.10;;;17.50;50.60;;;;;;4898154;29;20454;-70
2022/03/03 08:44:33;;;;;;;4.33;1.90;;;18.30;49.60;;;;;;4897806;29;20432;-70
2022/03/03 08:46:58;;;;;;;4.53;2.50;;;19.00;47.80;;;;;;4911755;29;20440;-70
2022/03/03 08:49:33;;;;;;;3.77;2.53;;;19.60;45.80;;;;;;4899505;29;20793;-70
2022/03/03 08:52:00;;;;;;;2.40;2.20;;;20.20;43.90;;;;;;4897845;29;20262;-70
2022/03/03 08:54:25;;;;;;;3.10;1.83;;;20.70;42.90;;;;;;4897670;29;20429;-70
2022/03/03 08:56:51;;;;;;;3.23;2.93;;;21.10;40.10;;;;;;4911904;29;20476;-70
2022/03/03 08:59:16;;;;;;;4.10;2.63;;;21.40;39.30;;;;;;4912257;29;20210;-71
2022/03/03 09:01:42;;;;;;;5.33;2.90;;;21.50;38.80;;;;;;4913862;29;20183;-71
2022/03/03 09:04:08;;;;;;;2.73;2.20;;;21.80;38.20;;;;;;4897802;29;20275;-71
2022/03/03 09:06:34;;;;;;;3.50;2.20;;;22.00;37.10;;;;;;4912486;29;20184;-70
2022/03/03 09:09:00;;;;;;;2.60;2.30;;;22.20;36.60;;;;;;4898087;29;20193;-70
2022/03/03 09:11:25;;;;;;;2.90;2.43;;;22.60;36.70;;;;;;4903567;29;20536;-70
2022/03/03 09:13:51;;;;;;;3.60;2.93;;;23.00;36.80;;;;;;4927246;28;20243;-70
2022/03/03 09:16:17;;;;;;;4.23;3.07;;;23.60;37.60;;;;;;4912618;29;20222;-70
2022/03/03 09:18:45;;;;;;;3.67;3.30;;;24.20;36.80;;;;;;4913090;29;20183;-70
2022/03/03 09:21:10;;;;;;;3.23;3.00;;;24.60;35.30;;;;;;4911191;29;20463;-70
2022/03/03 09:23:36;;;;;;;4.93;3.00;;;25.20;35.30;;;;;;4915298;29;20447;-71
2022/03/03 09:26:02;;;;;;;4.70;4.00;;;25.70;34.40;;;;;;4915903;29;20184;-70
2022/03/03 09:28:27;;;;;;;3.97;2.40;;;26.10;33.60;;;;;;4916030;29;20211;-71
2022/03/03 09:30:56;;;;;;;6.53;2.37;;;26.40;33.00;;;;;;4904348;29;20483;-71
2022/03/03 09:33:22;;;;;;;4.97;3.30;;;26.80;32.30;;;;;;4897005;29;20196;-70
2022/03/03 09:35:47;;;;;;;4.93;3.20;;;27.10;31.50;;;;;;4901518;29;20432;-70
2022/03/03 09:38:13;;;;;;;3.30;2.20;;;27.20;30.90;;;;;;4897304;29;20484;-70
2022/03/03 09:40:39;;;;;;;7.43;3.00;;;27.40;30.80;;;;;;4906683;29;20278;-71
2022/03/03 09:43:06;;;;;;;3.87;2.40;;;27.80;31.10;;;;;;4915208;29;20195;-71
2022/03/03 09:45:33;;;;;;;2.90;2.27;;;28.00;30.50;;;;;;4914093;29;20433;-70
2022/03/03 09:48:02;;;;;;;3.20;2.07;;;28.00;29.90;;;;;;4914372;29;20464;-70
2022/03/03 09:50:28;;;;;;;3.40;2.93;;;28.10;30.00;;;;;;4907309;29;20428;-70
2022/03/03 09:52:54;;;;;;;7.40;3.90;;;28.30;29.80;;;;;;4896886;29;20452;-70
2022/03/03 09:55:20;;;;;;;4.23;2.50;;;28.40;30.00;;;;;;4896741;29;20258;-70
2022/03/03 09:57:48;;;;;;;4.30;3.90;;;28.40;29.50;;;;;;4896964;29;20886;-70
2022/03/03 10:00:15;;;;;;;7.17;3.43;;;28.50;29.30;;;;;;4920400;29;20464;-68
2022/03/03 10:03:08;;;;;;;3.93;3.63;;;28.30;28.90;;;;;;4921709;29;20459;-67
2022/03/03 10:05:45;;;;;;;2.40;2.20;;;28.30;29.10;;;;;;4915285;29;20430;-70
2022/03/03 10:08:12;;;;;;;2.97;2.73;;;28.30;29.00;;;;;;4909329;29;20514;-70
2022/03/03 10:10:43;;;;;;;7.17;3.40;;;28.50;29.60;;;;;;4911284;29;20427;-70
2022/03/03 10:13:09;;;;;;;4.73;3.50;;;28.60;28.80;;;;;;4915586;29;20447;-70
2022/03/03 10:15:37;;;;;;;4.00;2.73;;;28.60;28.60;;;;;;4915990;29;20431;-70
2022/03/03 10:18:10;;;;;;;3.43;3.13;;;28.70;28.70;;;;;;4916430;29;20523;-69
2022/03/03 10:20:58;;;;;;;3.23;2.70;;;28.60;28.80;;;;;;4910516;29;20456;-70
2022/03/03 10:23:29;;;;;;;6.93;2.73;;;28.50;28.50;;;;;;4915269;29;20464;-70
2022/03/03 10:25:57;;;;;;;4.13;3.17;;;28.70;28.90;;;;;;4909733;29;20948;-70
2022/03/03 10:28:25;;;;;;;5.13;2.80;;;28.90;28.90;;;;;;4915873;29;20487;-70
2022/03/03 10:30:51;;;;;;;4.13;2.50;;;29.00;28.70;;;;;;4905039;29;20432;-70
2022/03/03 10:33:19;;;;;;;4.50;3.67;;;29.00;28.40;;;;;;4912247;29;20969;-70
2022/03/03 10:36:09;;;;;;;2.70;2.07;;;29.50;28.80;;;;;;4914949;29;20242;-70
2022/03/03 10:38:52;;;;;;;11.63;4.40;;;29.90;28.70;;;;;;4916586;29;20424;-70
2022/03/03 10:41:39;;;;;;;2.63;2.40;;;30.30;27.90;;;;;;4917834;29;20455;-70
2022/03/03 10:44:07;;;;;;;5.27;3.07;;;31.00;27.90;;;;;;4904777;29;20475;-70
2022/03/03 10:46:33;;;;;;;3.53;2.80;;;31.20;27.50;;;;;;4919478;29;20458;-70
2022/03/03 10:49:14;;;;;;;6.37;4.00;;;31.50;27.50;;;;;;4921126;29;20430;-70
2022/03/03 10:51:40;;;;;;;5.17;4.23;;;32.00;27.50;;;;;;4902188;29;20428;-71
2022/03/03 10:54:08;;;;;;;3.90;3.10;;;31.90;27.00;;;;;;4908392;29;20420;-71
2022/03/03 10:56:43;;;;;;;4.67;3.13;;;32.20;27.20;;;;;;4920500;29;20191;-71
2022/03/03 10:59:10;;;;;;;5.93;3.37;;;32.80;27.40;;;;;;4919598;29;20419;-71
2022/03/03 11:01:36;;;;;;;3.37;3.07;;;33.30;26.60;;;;;;4911802;29;20523;-71
2022/03/03 11:04:02;;;;;;;3.40;3.10;;;33.60;26.50;;;;;;4902846;29;20867;-71
2022/03/03 11:06:30;;;;;;;4.03;3.73;;;33.90;26.30;;;;;;4921734;29;20180;-71
2022/03/03 11:08:57;;;;;;;2.73;2.50;;;33.80;25.80;;;;;;4921258;29;20435;-71
2022/03/03 11:11:24;;;;;;;3.07;2.77;;;33.70;25.80;;;;;;4921405;29;20542;-71
2022/03/03 11:13:51;;;;;;;3.87;3.57;;;33.90;25.80;;;;;;4921687;29;20846;-71
2022/03/03 11:16:20;;;;;;;5.10;3.53;;;34.20;25.90;;;;;;4906738;29;20428;-71
2022/03/03 11:18:47;;;;;;;3.37;3.07;;;34.50;25.70;;;;;;4920799;29;20415;-71
2022/03/03 11:21:14;;;;;;;12.63;4.23;;;35.10;25.90;;;;;;4914617;29;20428;-71
2022/03/03 11:23:52;;;;;;;4.57;3.47;;;35.70;25.70;;;;;;4915436;29;20460;-71
2022/03/03 11:26:31;;;;;;;6.07;3.27;;;36.30;25.60;;;;;;4919942;29;20526;-71
2022/03/03 11:29:10;;;;;;;4.47;2.90;;;36.90;25.20;;;;;;4921231;29;20431;-72
2022/03/03 11:31:37;;;;;;;3.80;3.10;;;37.20;25.00;;;;;;4935863;28;20427;-71
2022/03/03 11:34:31;;;;;;;2.87;2.53;;;37.70;24.70;;;;;;4917639;29;20428;-72
2022/03/03 11:37:15;;;;;;;4.87;3.00;;;38.10;24.20;;;;;;4920369;29;20446;-72
2022/03/03 11:39:54;;;;;;;3.90;3.50;;;37.80;23.40;;;;;;4910458;29;20825;-72
2022/03/03 11:42:20;;;;;;;4.23;3.53;;;38.40;23.70;;;;;;4932766;29;21024;-73
2022/03/03 11:44:46;;;;;;;5.00;3.97;;;38.90;23.80;;;;;;4918764;29;20428;-70
2022/03/03 11:47:25;;;;;;;4.30;4.00;;;39.20;24.10;;;;;;4920553;29;20588;-73
2022/03/03 11:49:58;;;;;;;4.87;3.13;;;39.70;23.90;;;;;;4915013;29;20459;-73
2022/03/03 11:52:23;;;;;;;3.73;3.23;;;40.20;23.60;;;;;;4920613;29;20533;-70
2022/03/03 11:54:57;;;;;;;4.67;3.77;;;40.60;22.90;;;;;;4901317;29;20433;-70
2022/03/03 11:57:27;;;;;;;4.37;3.87;;;40.90;22.40;;;;;;4919281;29;20223;-70
2022/03/03 11:59:58;;;;;;;4.20;3.80;;;41.20;22.50;;;;;;4908719;29;20901;-70
2022/03/03 12:02:32;;;;;;;5.73;3.17;;;41.80;22.50;;;;;;4902167;29;20476;-70
2022/03/03 12:05:35;;;;;;;5.70;3.90;;;41.80;22.20;;;;;;4931686;29;20479;-70
2022/03/03 12:08:04;;;;;;;4.00;3.70;;;42.00;22.00;;;;;;4927428;29;20401;-70
2022/03/03 12:10:31;;;;;;;4.07;3.67;;;42.40;21.90;;;;;;4917980;29;20460;-70
2022/03/03 12:13:29;;;;;;;7.20;4.37;;;42.60;21.70;;;;;;4932273;28;20439;-70
2022/03/03 12:16:21;;;;;;;2.97;2.60;;;43.00;21.80;;;;;;4918655;29;20416;-71
2022/03/03 12:19:03;;;;;;;12.57;3.27;;;43.40;21.70;;;;;;4917587;29;20472;-71
2022/03/03 12:21:41;;;;;;;3.77;3.47;;;43.80;21.70;;;;;;4901989;29;20910;-71
2022/03/03 12:24:12;;;;;;;3.17;2.67;;;43.90;20.80;;;;;;4902027;29;20430;-71
2022/03/03 12:26:56;;;;;;;3.23;2.93;;;43.70;20.40;;;;;;4912907;29;20507;-71
2022/03/03 12:29:48;;;;;;;4.10;3.80;;;43.80;20.60;;;;;;4902298;29;20412;-71
2022/03/03 12:32:32;;;;;;;2.57;2.37;;;44.10;20.70;;;;;;4902904;29;21020;-71
2022/03/03 12:35:14;;;;;;;2.97;2.77;;;43.90;19.80;;;;;;4906405;29;20434;-71
2022/03/03 12:37:43;;;;;;;6.37;3.73;;;44.20;20.60;;;;;;4919820;29;20406;-71
2022/03/03 12:40:10;;;;;;;3.50;2.50;;;44.40;20.70;;;;;;4919069;29;20441;-71
2022/03/03 12:42:37;;;;;;;3.70;3.40;;;44.60;20.40;;;;;;4919335;29;20426;-71
2022/03/03 12:45:07;;;;;;;3.33;3.00;;;44.80;20.20;;;;;;4918991;29;20461;-70
2022/03/03 12:47:48;;;;;;;3.77;3.27;;;45.00;19.90;;;;;;4911093;29;20409;-70
2022/03/03 12:50:21;;;;;;;4.10;3.30;;;45.00;19.70;;;;;;4900252;29;20453;-71
2022/03/03 12:53:03;;;;;;;5.87;3.90;;;44.70;19.60;;;;;;4900443;29;20437;-71
2022/03/03 12:55:49;;;;;;;3.27;3.07;;;44.30;20.00;;;;;;4921133;29;20433;-71
2022/03/03 12:58:17;;;;;;;3.17;2.90;;;44.20;19.90;;;;;;4912931;29;20454;-71
2022/03/03 13:00:45;;;;;;;2.60;2.40;;;44.10;19.70;;;;;;4916753;29;20447;-71